Terminal Aerodrome Forecast
Issued by NWS Wichita, KS

Home | Current Version | Previous Version | Graphics & Text | Print | Product List | Glossary On
Versions: 1 2 3 4 5 6 7 8 9 10 11 12 13 14 15 16
000
FTUS43 KICT 240245 AAB
TAFICT
TAF AMD
KICT 240245Z 2403/2424 34025G35KT P6SM SCT020
     FM240330 33022G26KT P6SM OVC015
     FM241100 32017G25KT P6SM OVC022=

USA.gov is the U.S. government's official web portal to all federal, state and local government web resources and services.